createdAt,value
2018-04-26T00:00:45.624Z,2.47
2018-04-26T00:03:13.118Z,3.43
2018-04-26T00:05:40.589Z,2.40
2018-04-26T00:08:08.109Z,2.90
2018-04-26T00:10:36.339Z,2.23
2018-04-26T00:13:03.812Z,2.63
2018-04-26T00:15:31.293Z,2.87
2018-04-26T00:17:58.758Z,2.70
2018-04-26T00:20:26.218Z,3.00
2018-04-26T00:22:53.705Z,3.30
2018-04-26T00:25:21.177Z,3.30
2018-04-26T00:27:48.644Z,3.63
2018-04-26T00:30:16.161Z,3.83
2018-04-26T00:32:44.390Z,4.20
2018-04-26T00:35:11.891Z,3.70
2018-04-26T00:37:40.137Z,3.53
2018-04-26T00:40:07.640Z,4.20
2018-04-26T00:42:35.868Z,3.03
2018-04-26T00:45:03.484Z,3.30
2018-04-26T00:47:31.764Z,3.00
2018-04-26T00:49:59.278Z,3.60
2018-04-26T00:52:26.772Z,3.33
2018-04-26T00:54:54.283Z,2.90
2018-04-26T00:57:21.749Z,3.03
2018-04-26T00:59:49.236Z,3.03
2018-04-26T01:02:16.699Z,3.10
2018-04-26T01:04:44.929Z,2.80
2018-04-26T01:07:12.427Z,4.30
2018-04-26T01:09:39.901Z,2.80
2018-04-26T01:12:08.132Z,2.77
2018-04-26T01:14:35.579Z,3.43
2018-04-26T01:17:03.048Z,2.97
2018-04-26T01:19:30.511Z,3.40
2018-04-26T01:21:57.988Z,2.27
2018-04-26T01:24:25.507Z,3.60
2018-04-26T01:26:52.988Z,3.13
2018-04-26T01:29:20.464Z,3.00
2018-04-26T01:31:47.965Z,3.00
2018-04-26T01:34:15.456Z,3.03
2018-04-26T01:36:54.888Z,2.87
2018-04-26T01:39:22.394Z,3.10
2018-04-26T01:41:50.668Z,3.50
2018-04-26T01:44:18.939Z,4.50
2018-04-26T01:46:46.421Z,4.20
2018-04-26T01:49:14.651Z,2.43
2018-04-26T01:51:42.112Z,3.57
2018-04-26T01:54:09.596Z,2.67
2018-04-26T01:56:37.048Z,4.37
2018-04-26T01:59:04.571Z,4.27
2018-04-26T02:01:32.068Z,3.33
2018-04-26T02:03:59.557Z,3.73
2018-04-26T02:06:27.159Z,3.83
2018-04-26T02:08:54.652Z,3.67
2018-04-26T02:11:22.932Z,3.73
2018-04-26T02:13:51.230Z,3.43
2018-04-26T02:16:19.452Z,3.90
2018-04-26T02:18:46.953Z,3.30
2018-04-26T02:21:15.409Z,3.00
2018-04-26T02:23:42.903Z,3.70
2018-04-26T02:26:11.165Z,3.73
2018-04-26T02:28:38.629Z,3.27
2018-04-26T02:31:06.884Z,3.80
2018-04-26T02:33:36.382Z,3.90
2018-04-26T02:36:03.872Z,3.73
2018-04-26T02:38:32.108Z,3.00
2018-04-26T02:40:59.604Z,4.50
2018-04-26T02:43:27.850Z,3.20
2018-04-26T02:45:55.747Z,3.20
2018-04-26T02:48:23.996Z,3.10
2018-04-26T02:50:51.489Z,3.73
2018-04-26T02:53:19.725Z,4.57
2018-04-26T02:55:47.205Z,4.07
2018-04-26T02:58:14.682Z,4.83
2018-04-26T03:00:42.941Z,4.00
2018-04-26T03:03:10.421Z,4.10
2018-04-26T03:05:37.935Z,4.17
2018-04-26T03:08:05.465Z,5.00
2018-04-26T03:10:32.969Z,4.80
2018-04-26T03:13:00.436Z,4.30
2018-04-26T03:15:27.936Z,3.70
2018-04-26T03:17:55.425Z,3.83
2018-04-26T03:20:22.950Z,4.50
2018-04-26T03:22:50.427Z,4.20
2018-04-26T03:25:17.902Z,5.23
2018-04-26T03:27:45.439Z,3.83
2018-04-26T03:30:12.907Z,3.20
2018-04-26T03:32:40.393Z,3.90
2018-04-26T03:35:07.852Z,4.43
2018-04-26T03:37:35.370Z,4.50
2018-04-26T03:40:02.837Z,4.30
2018-04-26T03:42:30.339Z,4.90
2018-04-26T03:44:57.789Z,4.60
2018-04-26T03:47:25.257Z,4.40
2018-04-26T03:49:52.721Z,5.73
2018-04-26T03:52:20.200Z,4.90
2018-04-26T03:54:48.441Z,5.30
2018-04-26T03:57:15.913Z,5.57
2018-04-26T03:59:55.236Z,5.37
2018-04-26T04:02:34.586Z,6.00
2018-04-26T04:05:13.876Z,6.73
2018-04-26T04:07:41.413Z,5.07
2018-04-26T04:10:08.890Z,5.17
2018-04-26T04:12:36.383Z,6.17
2018-04-26T04:15:03.861Z,5.57
2018-04-26T04:17:31.421Z,4.87
2018-04-26T04:19:58.912Z,5.23
2018-04-26T04:22:26.417Z,6.40
2018-04-26T04:24:53.903Z,6.43
2018-04-26T04:27:21.589Z,6.20
2018-04-26T04:29:49.131Z,6.00
2018-04-26T04:32:17.601Z,6.20
2018-04-26T04:34:45.077Z,6.67
2018-04-26T04:37:13.315Z,5.57
2018-04-26T04:39:40.812Z,6.03
2018-04-26T04:42:09.072Z,8.00
2018-04-26T04:44:36.557Z,5.30
2018-04-26T04:47:04.808Z,6.97
2018-04-26T04:49:32.281Z,6.00
2018-04-26T04:52:00.548Z,5.10
2018-04-26T04:54:28.013Z,5.83
2018-04-26T04:56:56.277Z,5.30
2018-04-26T04:59:23.732Z,5.40
2018-04-26T05:01:51.279Z,5.43
2018-04-26T05:04:18.731Z,5.70
2018-04-26T05:06:46.229Z,5.20
2018-04-26T05:09:14.481Z,6.17
2018-04-26T05:11:41.961Z,6.57
2018-04-26T05:14:10.192Z,5.20
2018-04-26T05:16:37.821Z,4.80
2018-04-26T05:19:05.299Z,5.30
2018-04-26T05:21:32.804Z,5.97
2018-04-26T05:24:00.299Z,5.17
2018-04-26T05:26:27.800Z,4.83
2018-04-26T05:28:55.257Z,4.50
2018-04-26T05:31:22.738Z,5.50
2018-04-26T05:33:50.193Z,6.60
2018-04-26T05:36:17.689Z,4.10
2018-04-26T05:38:45.973Z,4.33
2018-04-26T05:41:13.456Z,5.73
2018-04-26T05:43:40.921Z,4.13
2018-04-26T05:46:08.677Z,6.40
2018-04-26T05:48:36.273Z,5.20
2018-04-26T05:51:03.784Z,5.70
2018-04-26T05:53:31.459Z,4.90
2018-04-26T05:55:59.671Z,5.53
2018-04-26T05:58:27.050Z,5.90
2018-04-26T06:00:55.330Z,6.87
2018-04-26T06:03:23.588Z,4.60
2018-04-26T06:05:51.874Z,6.00
2018-04-26T06:08:19.343Z,5.50
2018-04-26T06:10:47.584Z,5.50
2018-04-26T06:13:15.052Z,5.53
2018-04-26T06:15:44.011Z,5.80
2018-04-26T06:18:11.496Z,5.00
2018-04-26T06:20:38.950Z,5.80
2018-04-26T06:23:06.603Z,5.33
2018-04-26T06:25:34.129Z,6.57
2018-04-26T06:28:01.971Z,4.57
2018-04-26T06:30:29.689Z,5.30
2018-04-26T06:32:57.197Z,6.63
2018-04-26T06:35:25.451Z,5.87
2018-04-26T06:37:53.016Z,7.57
2018-04-26T06:40:20.501Z,6.50
2018-04-26T06:42:48.728Z,7.33
2018-04-26T06:45:16.291Z,6.40
2018-04-26T06:47:43.764Z,6.70
2018-04-26T06:50:12.228Z,6.50
2018-04-26T06:52:39.709Z,6.97
2018-04-26T06:55:07.200Z,5.80
2018-04-26T06:57:35.576Z,8.97
2018-04-26T07:00:03.856Z,7.47
2018-04-26T07:02:32.221Z,6.20
2018-04-26T07:04:59.737Z,6.70
2018-04-26T07:07:27.238Z,5.70
2018-04-26T07:09:54.805Z,7.60
2018-04-26T07:12:22.572Z,5.50
2018-04-26T07:14:50.052Z,6.00
2018-04-26T07:17:18.164Z,6.67
2018-04-26T07:19:45.644Z,7.17
2018-04-26T07:22:14.151Z,5.80
2018-04-26T07:24:42.428Z,5.03
2018-04-26T07:27:10.714Z,5.80
2018-04-26T07:29:38.953Z,7.10
2018-04-26T07:32:06.462Z,5.40
2018-04-26T07:34:33.945Z,4.87
2018-04-26T07:37:01.441Z,5.70
2018-04-26T07:39:29.699Z,5.97
2018-04-26T07:41:57.200Z,5.00
2018-04-26T07:44:25.476Z,4.60
2018-04-26T07:46:52.991Z,5.77
2018-04-26T07:49:20.469Z,5.07
2018-04-26T07:51:47.984Z,5.00
2018-04-26T07:54:15.484Z,4.70
2018-04-26T07:56:42.939Z,4.27
2018-04-26T07:59:10.430Z,5.00
2018-04-26T08:01:38.708Z,5.50
2018-04-26T08:04:06.374Z,5.60
2018-04-26T08:06:34.597Z,5.10
2018-04-26T08:09:02.095Z,5.80
2018-04-26T08:11:30.325Z,5.83
2018-04-26T08:13:57.847Z,5.47
2018-04-26T08:16:25.467Z,5.73
2018-04-26T08:18:52.968Z,5.23
2018-04-26T08:21:21.356Z,5.17
2018-04-26T08:23:48.884Z,4.87
2018-04-26T08:26:16.370Z,5.00
2018-04-26T08:28:43.843Z,6.73
2018-04-26T08:31:11.338Z,4.83
2018-04-26T08:33:38.828Z,4.90
2018-04-26T08:36:06.490Z,4.20
2018-04-26T08:38:33.969Z,3.57
2018-04-26T08:41:01.576Z,4.33
2018-04-26T08:43:29.084Z,3.90
2018-04-26T08:45:57.348Z,5.40
2018-04-26T08:48:24.829Z,4.30
2018-04-26T08:50:53.705Z,3.70
2018-04-26T08:53:21.893Z,3.40
2018-04-26T08:55:49.865Z,4.10
2018-04-26T08:58:17.342Z,3.80
2018-04-26T09:00:44.812Z,3.10
2018-04-26T09:03:13.640Z,3.57
2018-04-26T09:05:41.272Z,3.37
2018-04-26T09:08:08.816Z,3.80
2018-04-26T09:10:36.351Z,3.60
2018-04-26T09:13:04.584Z,3.47
2018-04-26T09:15:32.052Z,3.80
2018-04-26T09:18:00.972Z,4.07
2018-04-26T09:20:29.044Z,3.17
2018-04-26T09:22:58.190Z,4.37
2018-04-26T09:25:26.724Z,4.33
2018-04-26T09:27:55.041Z,3.97
2018-04-26T09:30:22.502Z,5.23
2018-04-26T09:32:50.002Z,3.83
2018-04-26T09:35:17.547Z,3.27
2018-04-26T09:37:45.118Z,4.47
2018-04-26T09:40:12.577Z,2.90
2018-04-26T09:42:40.040Z,4.10
2018-04-26T09:45:08.314Z,3.73
2018-04-26T09:47:35.786Z,2.80
2018-04-26T09:50:04.021Z,3.47
2018-04-26T09:52:31.511Z,4.80
2018-04-26T09:54:58.983Z,4.83
2018-04-26T09:57:27.216Z,4.40
2018-04-26T09:59:54.677Z,3.87
2018-04-26T10:02:24.614Z,4.23
2018-04-26T10:04:55.071Z,3.80
2018-04-26T10:07:22.583Z,4.00
2018-04-26T10:09:50.061Z,4.40
2018-04-26T10:12:17.530Z,4.30
2018-04-26T10:14:45.778Z,3.70
2018-04-26T10:17:14.796Z,3.57
2018-04-26T10:19:43.063Z,4.07
2018-04-26T10:22:10.521Z,3.57
2018-04-26T10:24:38.008Z,4.10
2018-04-26T10:27:06.257Z,4.27
2018-04-26T10:29:33.722Z,3.53
2018-04-26T10:32:01.215Z,2.73
2018-04-26T10:34:28.693Z,3.97
2018-04-26T10:36:56.209Z,3.47
2018-04-26T10:39:24.472Z,4.20
2018-04-26T10:41:52.107Z,3.20
2018-04-26T10:44:19.625Z,2.63
2018-04-26T10:46:47.871Z,3.20
2018-04-26T10:49:15.342Z,3.13
2018-04-26T10:51:42.818Z,3.90
2018-04-26T10:54:10.361Z,3.33
2018-04-26T10:56:38.593Z,3.00
2018-04-26T10:59:06.085Z,3.10
2018-04-26T11:01:33.558Z,3.20
2018-04-26T11:04:01.898Z,3.53
2018-04-26T11:06:29.372Z,3.10
2018-04-26T11:08:57.118Z,3.67
2018-04-26T11:11:24.666Z,3.43
2018-04-26T11:13:52.098Z,3.50
2018-04-26T11:16:19.572Z,2.87
2018-04-26T11:18:47.048Z,3.27
2018-04-26T11:21:14.615Z,2.43
2018-04-26T11:23:42.862Z,3.00
2018-04-26T11:26:10.472Z,2.77
2018-04-26T11:28:37.999Z,2.80
2018-04-26T11:31:05.618Z,3.30
2018-04-26T11:33:33.109Z,3.17
2018-04-26T11:36:01.154Z,3.07
2018-04-26T11:38:28.647Z,2.93
2018-04-26T11:40:56.375Z,3.60
2018-04-26T11:43:23.908Z,2.43
2018-04-26T11:45:51.812Z,3.60
2018-04-26T11:48:19.288Z,3.20
2018-04-26T11:50:46.773Z,3.50
2018-04-26T11:53:14.250Z,3.10
2018-04-26T11:55:41.780Z,3.63
2018-04-26T11:58:09.301Z,2.90
2018-04-26T12:00:36.857Z,3.30
2018-04-26T12:03:05.118Z,3.63
2018-04-26T12:05:32.588Z,3.60
2018-04-26T12:08:00.893Z,3.53
2018-04-26T12:10:28.672Z,3.70
2018-04-26T12:12:56.147Z,3.13
2018-04-26T12:15:23.675Z,3.60
2018-04-26T12:17:51.197Z,3.30
2018-04-26T12:20:19.140Z,4.07
2018-04-26T12:22:46.704Z,5.93
2018-04-26T12:25:14.184Z,2.63
2018-04-26T12:27:42.462Z,3.03
2018-04-26T12:30:09.971Z,3.73
2018-04-26T12:32:37.508Z,3.33
2018-04-26T12:35:05.810Z,3.53
2018-04-26T12:37:33.318Z,3.47
2018-04-26T12:40:00.791Z,2.30
2018-04-26T12:42:28.345Z,2.93
2018-04-26T12:44:56.602Z,2.13
2018-04-26T12:47:24.084Z,2.63
2018-04-26T12:49:51.612Z,2.70
2018-04-26T12:52:19.073Z,3.07
2018-04-26T12:54:46.554Z,2.60
2018-04-26T12:57:14.373Z,2.53
2018-04-26T12:59:41.812Z,3.20
2018-04-26T13:02:09.299Z,3.53
2018-04-26T13:04:36.844Z,2.67
2018-04-26T13:07:04.340Z,3.30
2018-04-26T13:09:31.811Z,2.90
2018-04-26T13:11:59.284Z,2.97
2018-04-26T13:14:26.799Z,3.07
2018-04-26T13:16:54.311Z,3.40
2018-04-26T13:19:22.617Z,3.03
2018-04-26T13:21:50.113Z,3.50
2018-04-26T13:24:18.421Z,3.40
2018-04-26T13:26:46.691Z,3.17
2018-04-26T13:29:14.160Z,2.70
2018-04-26T13:31:42.571Z,3.67
2018-04-26T13:34:10.297Z,4.00
2018-04-26T13:36:38.558Z,2.73
2018-04-26T13:39:06.203Z,2.23
2018-04-26T13:41:33.799Z,3.07
2018-04-26T13:44:02.268Z,2.93
2018-04-26T13:46:30.555Z,3.27
2018-04-26T13:48:58.065Z,2.50
2018-04-26T13:51:25.532Z,3.40
2018-04-26T13:53:53.020Z,2.80
2018-04-26T13:56:20.491Z,3.90
2018-04-26T13:58:48.836Z,2.33
2018-04-26T14:01:16.325Z,2.83
2018-04-26T14:03:44.161Z,2.70
2018-04-26T14:06:11.810Z,3.43
2018-04-26T14:08:39.315Z,3.47
2018-04-26T14:11:06.890Z,4.30
2018-04-26T14:13:34.356Z,2.43
2018-04-26T14:16:02.654Z,3.07
2018-04-26T14:18:30.117Z,2.77
2018-04-26T14:20:57.609Z,2.90
2018-04-26T14:23:25.065Z,3.30
2018-04-26T14:25:52.552Z,2.60
2018-04-26T14:28:21.001Z,2.47
2018-04-26T14:30:49.306Z,2.17
2018-04-26T14:33:16.859Z,2.00
2018-04-26T14:35:44.337Z,2.60
2018-04-26T14:38:12.698Z,2.33
2018-04-26T14:40:40.934Z,2.60
2018-04-26T14:43:08.438Z,2.53
2018-04-26T14:45:36.715Z,1.87
2018-04-26T14:48:04.227Z,2.73
2018-04-26T14:50:31.744Z,2.07
2018-04-26T14:53:00.029Z,2.03
2018-04-26T14:55:28.294Z,2.90
2018-04-26T14:57:56.586Z,2.70
2018-04-26T15:00:24.813Z,2.27
2018-04-26T15:02:52.338Z,2.80
2018-04-26T15:05:20.204Z,2.90
2018-04-26T15:07:47.680Z,2.60
2018-04-26T15:10:15.176Z,2.60
2018-04-26T15:12:42.657Z,2.63
2018-04-26T15:15:10.290Z,2.30
2018-04-26T15:17:37.802Z,3.30
2018-04-26T15:20:05.287Z,2.37
2018-04-26T15:22:32.803Z,2.40
2018-04-26T15:25:01.072Z,2.97
2018-04-26T15:27:28.625Z,2.40
2018-04-26T15:29:56.185Z,3.03
2018-04-26T15:32:23.743Z,2.20
2018-04-26T15:34:52.122Z,2.10
2018-04-26T15:37:19.666Z,2.70
2018-04-26T15:39:47.172Z,3.00
2018-04-26T15:42:14.678Z,2.40
2018-04-26T15:44:42.146Z,2.30
2018-04-26T15:47:09.693Z,2.33
2018-04-26T15:49:37.985Z,2.67
2018-04-26T15:52:05.492Z,3.27
2018-04-26T15:54:35.083Z,1.63
2018-04-26T15:57:21.147Z,2.37
2018-04-26T16:00:00.568Z,2.10
2018-04-26T16:02:57.891Z,2.47
2018-04-26T16:05:37.274Z,2.40
2018-04-26T16:08:22.534Z,2.33
2018-04-26T16:11:07.759Z,2.43
2018-04-26T16:13:53.859Z,2.13
2018-04-26T16:16:39.824Z,3.20
2018-04-26T16:19:27.995Z,2.87
2018-04-26T16:22:13.809Z,3.00
2018-04-26T16:24:54.218Z,3.00
2018-04-26T16:27:39.323Z,2.60
2018-04-26T16:30:18.587Z,2.63
2018-04-26T16:33:03.614Z,3.13
2018-04-26T16:35:43.596Z,2.90
2018-04-26T16:38:23.716Z,3.00
2018-04-26T16:40:51.440Z,3.37
2018-04-26T16:43:18.983Z,2.40
2018-04-26T16:45:46.517Z,2.80
2018-04-26T16:48:14.813Z,2.43
2018-04-26T16:50:43.602Z,2.63
2018-04-26T16:53:11.122Z,2.40
2018-04-26T16:55:38.758Z,2.90
2018-04-26T16:58:06.286Z,2.60
2018-04-26T17:00:33.822Z,2.13
2018-04-26T17:03:02.101Z,2.27
2018-04-26T17:05:29.604Z,2.17
2018-04-26T17:07:57.513Z,2.83
2018-04-26T17:10:25.126Z,2.30
2018-04-26T17:12:52.787Z,2.33
2018-04-26T17:15:20.929Z,2.60
2018-04-26T17:17:48.691Z,2.73
2018-04-26T17:20:17.738Z,1.80
2018-04-26T17:22:45.416Z,2.97
2018-04-26T17:25:12.894Z,3.43
2018-04-26T17:27:40.517Z,2.43
2018-04-26T17:30:08.271Z,2.33
2018-04-26T17:32:35.836Z,2.90
2018-04-26T17:35:03.326Z,3.90
2018-04-26T17:37:31.718Z,2.27
2018-04-26T17:39:59.212Z,3.10
2018-04-26T17:42:27.911Z,2.40
2018-04-26T17:44:56.264Z,2.40
2018-04-26T17:47:24.621Z,2.50
2018-04-26T17:49:52.105Z,2.10
2018-04-26T17:52:19.610Z,2.80
2018-04-26T17:54:47.094Z,2.90
2018-04-26T17:57:14.581Z,2.77
2018-04-26T17:59:42.073Z,5.30
2018-04-26T18:02:09.745Z,4.83
2018-04-26T18:04:37.542Z,2.90
2018-04-26T18:07:05.030Z,3.20
2018-04-26T18:09:32.598Z,4.90
2018-04-26T18:12:00.475Z,3.40
2018-04-26T18:14:28.748Z,4.57
2018-04-26T18:16:56.310Z,5.77
2018-04-26T18:19:23.875Z,5.10
2018-04-26T18:21:51.412Z,2.97
2018-04-26T18:24:19.860Z,1.97
2018-04-26T18:26:47.382Z,4.50
2018-04-26T18:29:14.913Z,4.30
2018-04-26T18:31:43.425Z,3.43
2018-04-26T18:34:11.762Z,2.70
2018-04-26T18:36:40.075Z,2.60
2018-04-26T18:39:07.742Z,1.87
2018-04-26T18:41:35.326Z,2.67
2018-04-26T18:44:02.820Z,2.70
2018-04-26T18:46:31.459Z,2.80
2018-04-26T18:48:58.989Z,2.23
2018-04-26T18:51:27.179Z,2.73
2018-04-26T18:53:54.924Z,2.43
2018-04-26T18:56:23.067Z,2.43
2018-04-26T18:58:51.973Z,2.30
2018-04-26T19:01:19.495Z,1.80
2018-04-26T19:03:47.539Z,2.07
2018-04-26T19:06:15.746Z,3.23
2018-04-26T19:08:43.391Z,2.27
2018-04-26T19:11:12.264Z,2.30
2018-04-26T19:13:41.118Z,2.60
2018-04-26T19:16:09.753Z,2.57
2018-04-26T19:18:38.065Z,3.03
2018-04-26T19:21:06.683Z,3.07
2018-04-26T19:23:34.222Z,2.80
2018-04-26T19:26:02.738Z,2.60
2018-04-26T19:28:31.733Z,2.93
2018-04-26T19:30:59.419Z,2.67
2018-04-26T19:33:27.502Z,2.63
2018-04-26T19:35:55.082Z,3.40
2018-04-26T19:38:23.308Z,3.03
2018-04-26T19:40:51.394Z,5.13
2018-04-26T19:43:20.119Z,3.50
2018-04-26T19:45:47.876Z,3.63
2018-04-26T19:48:15.510Z,3.10
2018-04-26T19:50:43.226Z,2.80
2018-04-26T19:53:10.864Z,3.33
2018-04-26T19:55:38.625Z,3.73
2018-04-26T19:58:06.206Z,4.03
2018-04-26T20:00:33.723Z,4.53
2018-04-26T20:03:01.264Z,4.13
2018-04-26T20:05:28.726Z,4.57
2018-04-26T20:07:56.213Z,3.40
2018-04-26T20:10:23.957Z,3.93
2018-04-26T20:12:52.302Z,3.80
2018-04-26T20:15:20.207Z,3.93
2018-04-26T20:17:47.811Z,4.17
2018-04-26T20:20:15.405Z,4.30
2018-04-26T20:22:42.893Z,5.20
2018-04-26T20:25:11.109Z,4.00
2018-04-26T20:27:38.578Z,3.43
2018-04-26T20:30:06.057Z,3.10
2018-04-26T20:32:33.575Z,3.67
2018-04-26T20:35:01.053Z,3.80
2018-04-26T20:37:28.584Z,4.43
2018-04-26T20:39:56.080Z,4.53
2018-04-26T20:42:23.643Z,3.80
2018-04-26T20:44:51.236Z,3.30
2018-04-26T20:47:18.782Z,3.73
2018-04-26T20:49:46.268Z,4.40
2018-04-26T20:52:14.528Z,3.57
2018-04-26T20:54:42.103Z,4.53
2018-04-26T20:57:10.344Z,3.30
2018-04-26T20:59:37.818Z,3.30
2018-04-26T21:02:05.440Z,3.60
2018-04-26T21:04:32.914Z,3.70
2018-04-26T21:07:00.384Z,3.20
2018-04-26T21:09:27.969Z,3.77
2018-04-26T21:11:55.430Z,3.27
2018-04-26T21:14:24.993Z,4.60
2018-04-26T21:16:52.815Z,5.00
2018-04-26T21:19:20.298Z,3.80
2018-04-26T21:21:47.773Z,4.37
2018-04-26T21:24:15.330Z,4.03
2018-04-26T21:26:42.816Z,4.73
2018-04-26T21:29:10.274Z,4.00
2018-04-26T21:31:37.763Z,4.10
2018-04-26T21:34:06.013Z,3.97
2018-04-26T21:36:33.488Z,4.00
2018-04-26T21:39:01.003Z,3.20
2018-04-26T21:41:28.482Z,3.10
2018-04-26T21:43:55.958Z,3.60
2018-04-26T21:46:23.548Z,3.57
2018-04-26T21:48:51.013Z,3.77
2018-04-26T21:51:24.079Z,4.17
2018-04-26T21:53:58.105Z,3.10
2018-04-26T21:56:32.219Z,3.63
2018-04-26T21:59:06.075Z,3.17
2018-04-26T22:01:39.272Z,3.67
2018-04-26T22:04:07.394Z,3.47
2018-04-26T22:06:35.632Z,3.57
2018-04-26T22:09:03.103Z,3.53
2018-04-26T22:11:30.602Z,3.57
2018-04-26T22:13:58.056Z,4.17
2018-04-26T22:16:25.525Z,3.27
2018-04-26T22:18:53.017Z,3.40
2018-04-26T22:21:20.498Z,3.83
2018-04-26T22:23:47.980Z,3.20
2018-04-26T22:26:15.453Z,3.57
2018-04-26T22:28:42.966Z,2.73
2018-04-26T22:31:10.422Z,2.77
2018-04-26T22:33:37.929Z,3.57
2018-04-26T22:36:05.400Z,3.10
2018-04-26T22:38:32.943Z,2.90
2018-04-26T22:41:00.452Z,3.20
2018-04-26T22:43:27.910Z,4.00
2018-04-26T22:45:55.779Z,3.23
2018-04-26T22:48:23.245Z,2.57
2018-04-26T22:50:50.765Z,3.40
2018-04-26T22:53:18.234Z,2.77
2018-04-26T22:55:45.724Z,2.93
2018-04-26T22:58:13.220Z,3.00
2018-04-26T23:00:40.701Z,3.30
2018-04-26T23:03:08.178Z,2.60
2018-04-26T23:05:35.695Z,2.70
2018-04-26T23:08:03.954Z,2.60
2018-04-26T23:10:32.219Z,2.70
2018-04-26T23:12:59.696Z,3.20
2018-04-26T23:15:27.243Z,3.60
2018-04-26T23:17:55.528Z,3.13
2018-04-26T23:20:22.965Z,3.47
2018-04-26T23:22:50.427Z,3.30
2018-04-26T23:25:17.933Z,2.93
2018-04-26T23:27:45.396Z,2.90
2018-04-26T23:30:12.940Z,3.20
2018-04-26T23:32:40.427Z,3.80
2018-04-26T23:35:07.945Z,2.80
2018-04-26T23:37:36.181Z,2.73
2018-04-26T23:40:03.653Z,2.97
2018-04-26T23:42:31.122Z,3.43
2018-04-26T23:44:58.621Z,3.77
2018-04-26T23:47:26.087Z,2.33
2018-04-26T23:49:53.773Z,3.47
2018-04-26T23:52:21.237Z,2.57
2018-04-26T23:54:48.793Z,2.60
2018-04-26T23:57:16.974Z,2.40
2018-04-26T23:59:44.449Z,2.93
